Time,TemperatureF,DewpointF,PressureIn,WindDirection,WindDirectionDegrees,WindSpeedMPH,WindSpeedGustMPH,Humidity,HourlyPrecipIn,Conditions,Clouds,dailyrainin,SoftwareType,DateUTC
2013-07-14 00:00:00,72.7,71.2,29.98,SSE,157,4.6,4.6,95,0.00,CLR,,1.24,WeatherDisplay:10.37,2013-07-14 04:00:00,
2013-07-14 00:01:00,72.6,71.1,29.98,SSE,155,5.0,5.0,95,0.00,RA,,0.00,WeatherDisplay:10.37,2013-07-14 04:01:00,
2013-07-14 00:06:00,72.5,71.0,29.98,SSE,161,3.5,3.5,95,0.00,RA,,0.00,WeatherDisplay:10.37,2013-07-14 04:06:00,
2013-07-14 00:11:00,72.4,70.9,29.98,South,174,5.8,5.8,95,0.00,CLR,,0.00,WeatherDisplay:10.37,2013-07-14 04:11:00,
2013-07-14 00:16:00,72.4,70.9,29.98,South,174,3.5,3.5,95,0.00,CLR,,0.00,WeatherDisplay:10.37,2013-07-14 04:16:00,
2013-07-14 00:21:00,72.4,71.2,29.98,South,177,3.5,3.5,96,0.00,CLR,,0.00,WeatherDisplay:10.37,2013-07-14 04:21:00,
2013-07-14 00:26:00,72.4,71.2,29.98,South,177,1.2,1.2,96,0.00,CLR,,0.00,WeatherDisplay:10.37,2013-07-14 04:26:00,
2013-07-14 00:31:00,72.3,71.1,29.98,South,173,3.5,3.5,96,0.00,CLR,,0.00,WeatherDisplay:10.37,2013-07-14 04:31:00,
2013-07-14 00:36:00,72.3,71.1,29.97,South,169,2.3,2.3,96,0.00,CLR,,0.00,WeatherDisplay:10.37,2013-07-14 04:36:00,
2013-07-14 00:41:00,72.3,71.1,29.97,SSE,147,2.3,2.3,96,0.00,CLR,,0.00,WeatherDisplay:10.37,2013-07-14 04:41:00,
2013-07-14 00:46:00,72.3,71.1,29.98,SE,130,8.1,8.1,96,0.00,CLR,,0.00,WeatherDisplay:10.37,2013-07-14 04:46:00,
2013-07-14 00:51:00,72.3,71.1,29.98,SSE,153,7.0,7.0,96,0.00,CLR,,0.00,WeatherDisplay:10.37,2013-07-14 04:51:00,
2013-07-14 00:56:00,72.3,70.8,29.99,South,175,5.8,5.8,95,0.00,CLR,,0.00,WeatherDisplay:10.37,2013-07-14 04:56:00,
2013-07-14 01:01:00,72.3,70.8,29.98,SSE,160,3.5,3.5,95,0.00,CLR,,0.00,WeatherDisplay:10.37,2013-07-14 05:01:00,
2013-07-14 01:06:00,72.4,70.9,29.98,ESE,121,3.5,3.5,95,0.00,CLR,,0.00,WeatherDisplay:10.37,2013-07-14 05:06:00,
2013-07-14 01:11:00,72.5,71.0,29.98,SE,146,5.8,5.8,95,0.00,CLR,,0.00,WeatherDisplay:10.37,2013-07-14 05:11:00,
2013-07-14 01:16:00,72.6,70.8,29.98,SSE,151,3.5,3.5,94,0.00,CLR,,0.00,WeatherDisplay:10.37,2013-07-14 05:16:00,
2013-07-14 01:21:00,72.6,70.8,29.98,SSE,163,1.2,1.2,94,0.00,CLR,,0.00,WeatherDisplay:10.37,2013-07-14 05:21:00,
2013-07-14 01:26:00,72.6,70.8,29.98,South,169,3.5,3.5,94,0.00,CLR,,0.00,WeatherDisplay:10.37,2013-07-14 05:26:00,
2013-07-14 01:31:00,72.6,71.1,29.98,South,169,1.2,1.2,95,0.00,CLR,,0.00,WeatherDisplay:10.37,2013-07-14 05:31:00,
2013-07-14 01:36:00,72.8,71.3,29.99,South,172,3.5,3.5,95,0.00,CLR,,0.00,WeatherDisplay:10.37,2013-07-14 05:36:00,
2013-07-14 01:41:00,72.8,71.3,29.98,South,178,3.5,3.5,95,0.00,CLR,,0.00,WeatherDisplay:10.37,2013-07-14 05:41:00,
2013-07-14 01:46:00,72.9,71.4,29.98,South,176,2.3,2.3,95,0.00,CLR,,0.00,WeatherDisplay:10.37,2013-07-14 05:46:00,
2013-07-14 01:51:00,72.8,71.3,29.98,South,171,3.5,3.5,95,0.00,CLR,,0.00,WeatherDisplay:10.37,2013-07-14 05:51:00,
2013-07-14 01:56:00,72.8,71.3,29.98,SSE,161,2.3,2.3,95,0.00,CLR,,0.00,WeatherDisplay:10.37,2013-07-14 05:56:00,
2013-07-14 02:01:00,72.9,71.4,29.98,South,191,3.5,3.5,95,0.00,CLR,,0.00,WeatherDisplay:10.37,2013-07-14 06:01:00,
2013-07-14 02:06:00,72.9,71.4,29.98,South,191,0.0,0.0,95,0.00,CLR,,0.00,WeatherDisplay:10.37,2013-07-14 06:06:00,
2013-07-14 02:11:00,72.9,71.4,29.98,South,191,1.2,1.2,95,0.00,CLR,,0.00,WeatherDisplay:10.37,2013-07-14 06:11:00,
2013-07-14 02:16:00,72.9,71.4,29.98,South,191,2.3,2.3,95,0.00,CLR,,0.00,WeatherDisplay:10.37,2013-07-14 06:16:00,
2013-07-14 02:21:00,73.0,71.5,29.98,South,191,0.0,0.0,95,0.00,CLR,,0.00,WeatherDisplay:10.37,2013-07-14 06:21:00,
2013-07-14 02:26:00,72.9,71.4,29.98,South,191,1.2,1.2,95,0.00,CLR,,0.00,WeatherDisplay:10.37,2013-07-14 06:26:00,
2013-07-14 02:31:00,72.9,71.4,29.98,South,191,0.0,0.0,95,0.00,CLR,,0.00,WeatherDisplay:10.37,2013-07-14 06:31:00,
2013-07-14 02:36:00,72.9,71.7,29.98,SSW,213,2.3,2.3,96,0.00,CLR,,0.00,WeatherDisplay:10.37,2013-07-14 06:36:00,
2013-07-14 02:41:00,72.9,71.7,29.98,SSW,213,0.0,0.0,96,0.00,CLR,,0.00,WeatherDisplay:10.37,2013-07-14 06:41:00,
2013-07-14 02:46:00,72.9,71.7,29.98,SSW,213,1.2,1.2,96,0.00,CLR,,0.00,WeatherDisplay:10.37,2013-07-14 06:46:00,
2013-07-14 02:51:00,73.0,71.8,29.97,South,179,2.3,2.3,96,0.00,CLR,,0.00,WeatherDisplay:10.37,2013-07-14 06:51:00,
2013-07-14 02:56:00,73.1,71.9,29.97,SSE,159,5.8,5.8,96,0.00,CLR,,0.00,WeatherDisplay:10.37,2013-07-14 06:56:00,
2013-07-14 03:01:00,73.2,72.0,29.97,South,175,4.0,4.0,96,0.00,CLR,,0.00,WeatherDisplay:10.37,2013-07-14 07:01:00,
2013-07-14 03:06:00,73.3,71.8,29.97,SSE,167,4.6,4.6,95,0.00,CLR,,0.00,WeatherDisplay:10.37,2013-07-14 07:06:00,
2013-07-14 03:11:00,73.4,71.9,29.97,SSE,157,4.6,4.6,95,0.00,CLR,,0.00,WeatherDisplay:10.37,2013-07-14 07:11:00,
2013-07-14 03:16:00,73.4,71.9,29.97,South,169,4.6,4.6,95,0.00,CLR,,0.00,WeatherDisplay:10.37,2013-07-14 07:16:00,
2013-07-14 03:21:00,73.4,71.9,29.97,South,169,3.5,3.5,95,0.00,CLR,,0.00,WeatherDisplay:10.37,2013-07-14 07:21:00,
2013-07-14 03:26:00,73.4,71.9,29.97,SSE,160,3.5,3.5,95,0.00,CLR,,0.00,WeatherDisplay:10.37,2013-07-14 07:26:00,
2013-07-14 03:31:00,73.4,71.9,29.96,SSE,150,3.5,3.5,95,0.00,CLR,,0.00,WeatherDisplay:10.37,2013-07-14 07:31:00,
2013-07-14 03:36:00,73.4,71.9,29.96,SSE,165,3.5,3.5,95,0.00,CLR,,0.00,WeatherDisplay:10.37,2013-07-14 07:36:00,
2013-07-14 03:41:00,73.6,72.1,29.96,SSE,148,3.5,3.5,95,0.00,CLR,,0.00,WeatherDisplay:10.37,2013-07-14 07:41:00,
2013-07-14 03:46:00,73.9,72.4,29.96,SE,133,4.0,4.0,95,0.00,CLR,,0.00,WeatherDisplay:10.37,2013-07-14 07:46:00,
2013-07-14 03:51:00,74.2,72.7,29.96,SE,128,3.5,3.5,95,0.00,CLR,,0.00,WeatherDisplay:10.37,2013-07-14 07:51:00,
2013-07-14 03:56:00,74.4,72.9,29.96,SE,130,6.9,6.9,95,0.00,CLR,,0.00,WeatherDisplay:10.37,2013-07-14 07:56:00,
2013-07-14 04:01:00,74.5,72.7,29.96,SSE,147,5.8,5.8,94,0.00,CLR,,0.00,WeatherDisplay:10.37,2013-07-14 08:01:00,
2013-07-14 04:06:00,74.6,72.8,29.96,SSE,154,3.5,3.5,94,0.00,CLR,,0.00,WeatherDisplay:10.37,2013-07-14 08:06:00,
2013-07-14 04:11:00,74.6,72.8,29.96,South,183,6.9,6.9,94,0.00,CLR,,0.00,WeatherDisplay:10.37,2013-07-14 08:11:00,
2013-07-14 04:16:00,74.7,72.9,29.95,South,190,4.6,4.6,94,0.00,CLR,,0.00,WeatherDisplay:10.37,2013-07-14 08:16:00,
2013-07-14 04:21:00,74.8,73.0,29.96,SSE,164,4.6,4.6,94,0.00,CLR,,0.00,WeatherDisplay:10.37,2013-07-14 08:21:00,
2013-07-14 04:26:00,74.9,73.1,29.95,South,172,4.6,4.6,94,0.00,CLR,,0.00,WeatherDisplay:10.37,2013-07-14 08:26:00,
2013-07-14 04:31:00,75.0,73.2,29.95,SSE,156,3.5,3.5,94,0.00,CLR,,0.00,WeatherDisplay:10.37,2013-07-14 08:31:00,
2013-07-14 04:36:00,75.0,73.2,29.95,South,181,4.6,4.6,94,0.00,CLR,,0.00,WeatherDisplay:10.37,2013-07-14 08:36:00,
2013-07-14 04:41:00,75.1,73.3,29.95,South,186,4.6,4.6,94,0.00,CLR,,0.00,WeatherDisplay:10.37,2013-07-14 08:41:00,
2013-07-14 04:46:00,75.2,73.4,29.96,South,190,3.5,3.5,94,0.00,CLR,,0.00,WeatherDisplay:10.37,2013-07-14 08:46:00,
2013-07-14 04:49:00,75.2,73.4,29.96,South,175,2.3,2.3,94,0.00,CLR,,0.00,WeatherDisplay:10.37,2013-07-14 08:49:00,
2013-07-14 04:54:00,75.3,73.5,29.96,South,180,3.5,3.5,94,0.00,CLR,,0.00,WeatherDisplay:10.37,2013-07-14 08:54:00,
2013-07-14 04:59:00,75.3,73.5,29.96,SSE,167,4.6,4.6,94,0.00,CLR,,0.00,WeatherDisplay:10.37,2013-07-14 08:59:00,
2013-07-14 05:04:00,75.2,73.4,29.96,South,171,5.0,5.0,94,0.00,CLR,,0.00,WeatherDisplay:10.37,2013-07-14 09:04:00,
2013-07-14 05:09:00,75.2,73.4,29.96,South,186,5.0,5.0,94,0.00,CLR,,0.00,WeatherDisplay:10.37,2013-07-14 09:09:00,
2013-07-14 05:14:00,75.3,73.5,29.96,South,178,3.5,3.5,94,0.00,CLR,,0.00,WeatherDisplay:10.37,2013-07-14 09:14:00,
2013-07-14 05:19:00,75.2,73.4,29.95,South,174,4.6,4.6,94,0.00,CLR,,0.00,WeatherDisplay:10.37,2013-07-14 09:19:00,
2013-07-14 05:24:00,75.2,73.4,29.95,South,171,3.5,3.5,94,0.00,CLR,,0.00,WeatherDisplay:10.37,2013-07-14 09:24:00,
2013-07-14 05:29:00,75.1,73.3,29.95,South,184,1.2,1.2,94,0.00,CLR,,0.00,WeatherDisplay:10.37,2013-07-14 09:29:00,
2013-07-14 05:34:00,75.1,73.3,29.96,South,178,2.3,2.3,94,0.00,CLR,,0.00,WeatherDisplay:10.37,2013-07-14 09:34:00,
2013-07-14 05:39:00,75.0,73.5,29.96,SSE,159,2.3,2.3,95,0.00,CLR,,0.00,WeatherDisplay:10.37,2013-07-14 09:39:00,
2013-07-14 05:44:00,74.8,73.0,29.95,SSE,153,3.5,3.5,94,0.00,CLR,,0.00,WeatherDisplay:10.37,2013-07-14 09:44:00,
2013-07-14 05:49:00,74.8,73.3,29.96,SSE,149,2.3,2.3,95,0.00,CLR,,0.00,WeatherDisplay:10.37,2013-07-14 09:49:00,
2013-07-14 05:54:00,74.7,73.2,29.96,SE,146,2.3,2.3,95,0.00,CLR,,0.00,WeatherDisplay:10.37,2013-07-14 09:54:00,
2013-07-14 05:59:00,74.7,73.2,29.96,SE,135,3.5,3.5,95,0.00,CLR,,0.00,WeatherDisplay:10.37,2013-07-14 09:59:00,
2013-07-14 06:04:00,74.7,73.2,29.96,SE,144,2.3,2.3,95,0.00,CLR,,0.00,WeatherDisplay:10.37,2013-07-14 10:04:00,
2013-07-14 06:09:00,74.7,73.2,29.96,SSE,160,2.3,2.3,95,0.00,CLR,,0.00,WeatherDisplay:10.37,2013-07-14 10:09:00,
2013-07-14 06:14:00,74.7,73.2,29.96,South,172,2.3,2.3,95,0.00,CLR,,0.00,WeatherDisplay:10.37,2013-07-14 10:14:00,
2013-07-14 06:19:00,74.6,73.1,29.96,South,170,2.3,2.3,95,0.00,CLR,,0.00,WeatherDisplay:10.37,2013-07-14 10:19:00,
2013-07-14 06:24:00,74.6,73.1,29.96,SSE,148,3.5,3.5,95,0.00,CLR,,0.00,WeatherDisplay:10.37,2013-07-14 10:24:00,
2013-07-14 06:29:00,74.5,73.0,29.96,SSE,163,3.5,3.5,95,0.00,CLR,,0.00,WeatherDisplay:10.37,2013-07-14 10:29:00,
2013-07-14 06:34:00,74.5,73.0,29.96,SSE,167,3.5,3.5,95,0.00,CLR,,0.00,WeatherDisplay:10.37,2013-07-14 10:34:00,
2013-07-14 06:39:00,74.5,73.0,29.96,SSE,164,2.3,2.3,95,0.00,CLR,,0.00,WeatherDisplay:10.37,2013-07-14 10:39:00,
2013-07-14 06:44:00,74.5,73.0,29.96,South,181,2.3,2.3,95,0.00,CLR,,0.00,WeatherDisplay:10.37,2013-07-14 10:44:00,
2013-07-14 06:49:00,74.5,73.0,29.97,South,172,3.5,3.5,95,0.00,CLR,,0.00,WeatherDisplay:10.37,2013-07-14 10:49:00,
2013-07-14 06:54:00,74.5,73.0,29.97,South,178,1.2,1.2,95,0.00,CLR,,0.00,WeatherDisplay:10.37,2013-07-14 10:54:00,
2013-07-14 06:59:00,74.5,73.0,29.97,South,175,2.3,2.3,95,0.00,CLR,,0.00,WeatherDisplay:10.37,2013-07-14 10:59:00,
2013-07-14 07:04:00,74.6,73.1,29.97,SSE,155,3.5,3.5,95,0.00,CLR,,0.00,WeatherDisplay:10.37,2013-07-14 11:04:00,
2013-07-14 07:09:00,74.6,73.1,29.97,South,173,1.2,1.2,95,0.00,CLR,,0.00,WeatherDisplay:10.37,2013-07-14 11:09:00,
2013-07-14 07:14:00,74.6,73.1,29.97,South,173,1.2,1.2,95,0.00,CLR,,0.00,WeatherDisplay:10.37,2013-07-14 11:14:00,
2013-07-14 07:19:00,74.7,73.2,29.97,South,184,3.5,3.5,95,0.00,CLR,,0.00,WeatherDisplay:10.37,2013-07-14 11:19:00,
2013-07-14 07:24:00,74.8,73.0,29.98,SSE,161,4.0,4.0,94,0.00,CLR,,0.00,WeatherDisplay:10.37,2013-07-14 11:24:00,
2013-07-14 07:29:00,75.0,73.2,29.98,South,184,4.6,4.6,94,0.00,CLR,,0.00,WeatherDisplay:10.37,2013-07-14 11:29:00,
2013-07-14 07:34:00,75.1,73.3,29.98,SSW,199,3.5,3.5,94,0.00,CLR,,0.00,WeatherDisplay:10.37,2013-07-14 11:34:00,
2013-07-14 07:39:00,75.4,73.6,29.98,South,175,3.5,3.5,94,0.00,CLR,,0.00,WeatherDisplay:10.37,2013-07-14 11:39:00,
2013-07-14 07:44:00,75.7,73.5,29.98,SW,215,6.9,6.9,93,0.00,CLR,,0.00,WeatherDisplay:10.37,2013-07-14 11:44:00,
2013-07-14 07:49:00,76.0,73.8,29.99,South,183,5.0,5.0,93,0.00,CLR,,0.00,WeatherDisplay:10.37,2013-07-14 11:49:00,
2013-07-14 07:54:00,76.4,73.9,29.99,SSW,213,6.9,6.9,92,0.00,CLR,,0.00,WeatherDisplay:10.37,2013-07-14 11:54:00,
2013-07-14 07:59:00,76.8,74.3,29.99,SW,214,8.1,8.1,92,0.00,CLR,,0.00,WeatherDisplay:10.37,2013-07-14 11:59:00,
2013-07-14 08:04:00,77.0,73.8,29.99,SSE,161,11.5,11.5,90,0.00,CLR,,0.00,WeatherDisplay:10.37,2013-07-14 12:04:00,
2013-07-14 08:09:00,77.2,74.0,30.00,South,182,6.0,6.0,90,0.00,CLR,,0.00,WeatherDisplay:10.37,2013-07-14 12:09:00,
2013-07-14 08:14:00,77.6,74.1,30.00,SSW,198,10.4,10.4,89,0.00,CLR,,0.00,WeatherDisplay:10.37,2013-07-14 12:14:00,
2013-07-14 08:19:00,78.2,74.7,30.00,SW,230,5.0,5.0,89,0.00,CLR,,0.00,WeatherDisplay:10.37,2013-07-14 12:19:00,
2013-07-14 08:24:00,78.5,74.6,30.00,South,190,4.0,4.0,88,0.00,CLR,,0.00,WeatherDisplay:10.37,2013-07-14 12:24:00,
2013-07-14 08:29:00,78.5,74.3,30.01,South,188,5.8,5.8,87,0.00,CLR,,0.00,WeatherDisplay:10.37,2013-07-14 12:29:00,
2013-07-14 08:34:00,78.6,74.4,30.01,SSW,196,4.6,4.6,87,0.00,CLR,,0.00,WeatherDisplay:10.37,2013-07-14 12:34:00,
2013-07-14 08:39:00,78.6,74.4,30.01,SW,215,3.5,3.5,87,0.00,CLR,,0.00,WeatherDisplay:10.37,2013-07-14 12:39:00,
2013-07-14 08:44:00,78.5,74.3,30.01,SW,217,4.6,4.6,87,0.00,CLR,,0.00,WeatherDisplay:10.37,2013-07-14 12:44:00,
2013-07-14 08:49:00,78.4,73.9,30.02,SSW,209,3.5,3.5,86,0.00,CLR,,0.00,WeatherDisplay:10.37,2013-07-14 12:49:00,
2013-07-14 08:54:00,78.4,74.2,30.02,SSW,192,3.5,3.5,87,0.00,CLR,,0.00,WeatherDisplay:10.37,2013-07-14 12:54:00,
2013-07-14 08:59:00,78.5,74.3,30.02,South,172,4.6,4.6,87,0.00,CLR,,0.00,WeatherDisplay:10.37,2013-07-14 12:59:00,
2013-07-14 09:04:00,78.7,74.2,30.02,SW,227,6.9,6.9,86,0.00,CLR,,0.00,WeatherDisplay:10.37,2013-07-14 13:04:00,
2013-07-14 09:09:00,79.0,74.5,30.02,South,173,5.8,5.8,86,0.00,CLR,,0.00,WeatherDisplay:10.37,2013-07-14 13:09:00,
2013-07-14 09:14:00,79.6,74.0,30.02,SSW,192,8.0,8.0,83,0.00,CLR,,0.00,WeatherDisplay:10.37,2013-07-14 13:14:00,
2013-07-14 09:19:00,80.4,74.4,30.02,SSE,153,6.9,6.9,82,0.00,CLR,,0.00,WeatherDisplay:10.37,2013-07-14 13:19:00,
2013-07-14 09:24:00,80.6,73.9,30.02,SW,217,5.8,5.8,80,0.00,CLR,,0.00,WeatherDisplay:10.37,2013-07-14 13:24:00,
2013-07-14 09:29:00,80.5,73.8,30.02,SSE,160,6.0,6.0,80,0.00,CLR,,0.00,WeatherDisplay:10.37,2013-07-14 13:29:00,
2013-07-14 09:34:00,80.6,74.2,30.02,South,178,5.8,5.8,81,0.00,CLR,,0.00,WeatherDisplay:10.37,2013-07-14 13:34:00,
2013-07-14 09:39:00,80.7,74.3,30.02,South,190,5.8,5.8,81,0.00,CLR,,0.00,WeatherDisplay:10.37,2013-07-14 13:39:00,
2013-07-14 09:44:00,80.9,74.1,30.01,South,175,6.9,6.9,80,0.00,CLR,,0.00,WeatherDisplay:10.37,2013-07-14 13:44:00,
2013-07-14 09:49:00,81.2,74.4,30.01,South,175,3.5,3.5,80,0.00,CLR,,0.00,WeatherDisplay:10.37,2013-07-14 13:49:00,
2013-07-14 09:54:00,81.5,74.7,30.01,SSW,194,3.5,3.5,80,0.00,CLR,,0.00,WeatherDisplay:10.37,2013-07-14 13:54:00,
2013-07-14 09:59:00,81.8,74.3,30.01,South,173,6.0,6.0,78,0.00,CLR,,0.00,WeatherDisplay:10.37,2013-07-14 13:59:00,
2013-07-14 10:04:00,81.8,73.9,30.01,SSE,162,3.5,3.5,77,0.00,CLR,,0.00,WeatherDisplay:10.37,2013-07-14 14:04:00,
2013-07-14 10:09:00,81.8,73.5,30.02,SSE,167,3.5,3.5,76,0.00,CLR,,0.00,WeatherDisplay:10.37,2013-07-14 14:09:00,
2013-07-14 10:14:00,82.0,73.3,30.02,SSW,198,4.0,4.0,75,0.00,CLR,,0.00,WeatherDisplay:10.37,2013-07-14 14:14:00,
2013-07-14 10:19:00,82.0,72.5,30.01,South,180,7.0,7.0,73,0.00,CLR,,0.00,WeatherDisplay:10.37,2013-07-14 14:19:00,
2013-07-14 10:24:00,82.3,73.6,30.01,South,183,5.0,5.0,75,0.00,CLR,,0.00,WeatherDisplay:10.37,2013-07-14 14:24:00,
2013-07-14 10:29:00,82.7,73.2,30.01,SSW,203,10.0,10.0,73,0.00,CLR,,0.00,WeatherDisplay:10.37,2013-07-14 14:29:00,
2013-07-14 10:34:00,82.7,73.2,30.02,SSW,194,4.6,4.6,73,0.00,CLR,,0.00,WeatherDisplay:10.37,2013-07-14 14:34:00,
2013-07-14 10:39:00,82.7,73.6,30.02,South,171,5.8,5.8,74,0.00,CLR,,0.00,WeatherDisplay:10.37,2013-07-14 14:39:00,
2013-07-14 10:44:00,82.8,73.7,30.02,SSW,205,3.5,3.5,74,0.00,CLR,,0.00,WeatherDisplay:10.37,2013-07-14 14:44:00,
2013-07-14 10:49:00,82.7,73.2,30.02,South,183,6.0,6.0,73,0.00,CLR,,0.00,WeatherDisplay:10.37,2013-07-14 14:49:00,
2013-07-14 10:54:00,82.4,73.3,30.02,SSW,196,3.5,3.5,74,0.00,CLR,,0.00,WeatherDisplay:10.37,2013-07-14 14:54:00,
2013-07-14 10:59:00,82.3,73.2,30.02,South,188,5.8,5.8,74,0.00,CLR,,0.00,WeatherDisplay:10.37,2013-07-14 14:59:00,
2013-07-14 11:04:00,82.2,73.1,30.02,South,188,4.6,4.6,74,0.00,CLR,,0.00,WeatherDisplay:10.37,2013-07-14 15:04:00,
2013-07-14 11:09:00,82.1,73.0,30.02,South,177,5.8,5.8,74,0.00,CLR,,0.00,WeatherDisplay:10.37,2013-07-14 15:09:00,
2013-07-14 11:14:00,82.1,73.4,30.02,South,182,4.6,4.6,75,0.00,CLR,,0.00,WeatherDisplay:10.37,2013-07-14 15:14:00,
2013-07-14 11:19:00,82.3,73.6,30.02,South,176,3.5,3.5,75,0.00,CLR,,0.00,WeatherDisplay:10.37,2013-07-14 15:19:00,
2013-07-14 11:24:00,82.6,73.5,30.02,South,190,6.9,6.9,74,0.00,CLR,,0.00,WeatherDisplay:10.37,2013-07-14 15:24:00,
2013-07-14 11:29:00,82.7,73.2,30.03,South,175,4.6,4.6,73,0.00,CLR,,0.00,WeatherDisplay:10.37,2013-07-14 15:29:00,
2013-07-14 11:34:00,82.9,73.4,30.03,SSE,161,5.8,5.8,73,0.00,CLR,,0.00,WeatherDisplay:10.37,2013-07-14 15:34:00,
2013-07-14 11:39:00,83.1,73.9,30.03,SSE,162,5.0,5.0,74,0.00,CLR,,0.00,WeatherDisplay:10.37,2013-07-14 15:39:00,
2013-07-14 11:44:00,83.4,74.6,30.03,South,173,7.0,7.0,75,0.00,CLR,,0.00,WeatherDisplay:10.37,2013-07-14 15:44:00,
2013-07-14 11:49:00,83.5,74.7,30.03,SE,136,6.9,6.9,75,0.00,CLR,,0.00,WeatherDisplay:10.37,2013-07-14 15:49:00,
2013-07-14 11:54:00,83.6,74.8,30.03,SE,138,10.4,10.4,75,0.00,CLR,,0.00,WeatherDisplay:10.37,2013-07-14 15:54:00,
2013-07-14 11:59:00,83.7,74.9,30.04,South,169,4.0,4.0,75,0.00,CLR,,0.00,WeatherDisplay:10.37,2013-07-14 15:59:00,
2013-07-14 12:04:00,83.9,75.1,30.04,SE,134,5.8,5.8,75,0.00,CLR,,0.00,WeatherDisplay:10.37,2013-07-14 16:04:00,
2013-07-14 12:09:00,83.9,74.7,30.04,SSE,156,10.4,10.4,74,0.00,CLR,,0.00,WeatherDisplay:10.37,2013-07-14 16:09:00,
2013-07-14 12:14:00,83.9,74.7,30.04,SSE,148,6.9,6.9,74,0.00,CLR,,0.00,WeatherDisplay:10.37,2013-07-14 16:14:00,
2013-07-14 12:19:00,84.0,74.8,30.04,SE,134,5.8,5.8,74,0.00,CLR,,0.00,WeatherDisplay:10.37,2013-07-14 16:19:00,
2013-07-14 12:24:00,84.0,74.8,30.04,SSE,147,6.9,6.9,74,0.00,CLR,,0.00,WeatherDisplay:10.37,2013-07-14 16:24:00,
2013-07-14 12:29:00,84.2,75.0,30.04,SE,146,5.0,5.0,74,0.00,CLR,,0.00,WeatherDisplay:10.37,2013-07-14 16:29:00,
2013-07-14 12:34:00,84.6,75.0,30.04,South,175,8.1,8.1,73,0.00,CLR,,0.00,WeatherDisplay:10.37,2013-07-14 16:34:00,
2013-07-14 12:39:00,84.9,75.7,30.04,SSW,198,5.0,5.0,74,0.00,CLR,,0.00,WeatherDisplay:10.37,2013-07-14 16:39:00,
2013-07-14 12:44:00,84.9,74.4,30.03,South,169,6.9,6.9,71,0.00,CLR,,0.00,WeatherDisplay:10.37,2013-07-14 16:44:00,
2013-07-14 12:49:00,85.1,75.5,30.03,SSE,148,9.0,9.0,73,0.00,CLR,,0.00,WeatherDisplay:10.37,2013-07-14 16:49:00,
2013-07-14 12:54:00,84.9,74.9,30.03,SSE,164,11.5,11.5,72,0.00,CLR,,0.00,WeatherDisplay:10.37,2013-07-14 16:54:00,
2013-07-14 12:59:00,84.7,73.0,30.03,SE,124,8.1,8.1,68,0.00,CLR,,0.00,WeatherDisplay:10.37,2013-07-14 16:59:00,
2013-07-14 13:04:00,85.0,73.3,30.03,SSW,209,6.0,6.0,68,0.00,CLR,,0.00,WeatherDisplay:10.37,2013-07-14 17:04:00,
2013-07-14 13:09:00,85.3,73.1,30.04,SSE,161,11.5,11.5,67,0.00,CLR,,0.00,WeatherDisplay:10.37,2013-07-14 17:09:00,
2013-07-14 13:14:00,85.4,74.1,30.04,SSE,160,6.0,6.0,69,0.00,CLR,,0.00,WeatherDisplay:10.37,2013-07-14 17:14:00,
2013-07-14 13:19:00,85.1,73.8,30.04,SSE,166,9.2,9.2,69,0.00,CLR,,0.00,WeatherDisplay:10.37,2013-07-14 17:19:00,
2013-07-14 13:24:00,85.0,74.5,30.04,South,169,10.4,10.4,71,0.00,CLR,,0.00,WeatherDisplay:10.37,2013-07-14 17:24:00,
2013-07-14 13:29:00,84.7,74.7,30.04,SE,141,9.2,9.2,72,0.00,CLR,,0.00,WeatherDisplay:10.37,2013-07-14 17:29:00,
2013-07-14 13:34:00,84.1,73.3,30.03,SE,143,12.7,12.7,70,0.00,CLR,,0.00,WeatherDisplay:10.37,2013-07-14 17:34:00,
2013-07-14 13:39:00,84.1,73.7,30.03,ESE,119,10.4,10.4,71,0.00,CLR,,0.00,WeatherDisplay:10.37,2013-07-14 17:39:00,
2013-07-14 13:44:00,84.2,74.2,30.03,SE,137,11.5,11.5,72,0.00,CLR,,0.00,WeatherDisplay:10.37,2013-07-14 17:44:00,
2013-07-14 13:49:00,84.1,74.1,30.03,East,90,12.7,12.7,72,0.00,CLR,,0.00,WeatherDisplay:10.37,2013-07-14 17:49:00,
2013-07-14 13:54:00,83.9,73.5,30.03,ESE,111,11.5,11.5,71,0.00,CLR,,0.00,WeatherDisplay:10.37,2013-07-14 17:54:00,
2013-07-14 13:59:00,83.8,73.4,30.03,SE,130,6.9,6.9,71,0.00,CLR,,0.00,WeatherDisplay:10.37,2013-07-14 17:59:00,
2013-07-14 14:04:00,83.7,73.7,30.03,ESE,105,10.4,10.4,72,0.00,CLR,,0.00,WeatherDisplay:10.37,2013-07-14 18:04:00,
2013-07-14 14:09:00,83.6,74.4,30.03,ESE,106,11.5,11.5,74,0.00,CLR,,0.00,WeatherDisplay:10.37,2013-07-14 18:09:00,
2013-07-14 14:14:00,83.5,74.3,30.02,SSE,147,10.4,10.4,74,0.00,CLR,,0.00,WeatherDisplay:10.37,2013-07-14 18:14:00,
2013-07-14 14:19:00,83.4,74.2,30.02,ESE,112,10.4,10.4,74,0.00,CLR,,0.00,WeatherDisplay:10.37,2013-07-14 18:19:00,
2013-07-14 14:24:00,83.2,74.8,30.02,SE,134,12.7,12.7,76,0.00,CLR,,0.00,WeatherDisplay:10.37,2013-07-14 18:24:00,
2013-07-14 14:29:00,83.0,75.4,30.02,ESE,117,13.0,13.0,78,0.00,CLR,,0.00,WeatherDisplay:10.37,2013-07-14 18:29:00,
2013-07-14 14:34:00,82.7,74.8,30.02,SSE,161,13.0,13.0,77,0.00,CLR,,0.00,WeatherDisplay:10.37,2013-07-14 18:34:00,
2013-07-14 14:39:00,82.5,74.9,30.02,ESE,103,15.0,15.0,78,0.00,CLR,,0.00,WeatherDisplay:10.37,2013-07-14 18:39:00,
2013-07-14 14:44:00,82.5,74.9,30.02,East,79,16.1,16.1,78,0.00,CLR,,0.00,WeatherDisplay:10.37,2013-07-14 18:44:00,
2013-07-14 14:49:00,82.5,74.9,30.02,ESE,103,13.0,13.0,78,0.00,CLR,,0.00,WeatherDisplay:10.37,2013-07-14 18:49:00,
2013-07-14 14:54:00,82.3,74.7,30.02,ESE,116,13.8,13.8,78,0.00,CLR,,0.00,WeatherDisplay:10.37,2013-07-14 18:54:00,
2013-07-14 14:59:00,82.3,74.7,30.02,ENE,73,13.8,13.8,78,0.00,CLR,,0.00,WeatherDisplay:10.37,2013-07-14 18:59:00,
2013-07-14 15:04:00,82.3,74.4,30.01,SE,128,12.0,12.0,77,0.00,CLR,,0.00,WeatherDisplay:10.37,2013-07-14 19:04:00,
2013-07-14 15:09:00,82.1,74.6,30.01,SE,132,18.4,18.4,78,0.00,CLR,,0.00,WeatherDisplay:10.37,2013-07-14 19:09:00,
2013-07-14 15:14:00,81.7,74.2,30.01,East,99,17.3,17.3,78,0.00,CLR,,0.00,WeatherDisplay:10.37,2013-07-14 19:14:00,
2013-07-14 15:19:00,81.5,74.4,30.01,ESE,115,13.8,13.8,79,0.00,CLR,,0.00,WeatherDisplay:10.37,2013-07-14 19:19:00,
2013-07-14 15:24:00,81.3,74.2,30.02,ESE,119,14.0,14.0,79,0.00,CLR,,0.00,WeatherDisplay:10.37,2013-07-14 19:24:00,
2013-07-14 15:29:00,81.2,74.4,30.01,East,97,12.0,12.0,80,0.00,CLR,,0.00,WeatherDisplay:10.37,2013-07-14 19:29:00,
2013-07-14 15:34:00,81.0,75.0,30.01,ESE,104,18.4,18.4,82,0.00,CLR,,0.00,WeatherDisplay:10.37,2013-07-14 19:34:00,
2013-07-14 15:39:00,80.7,74.7,30.01,ESE,107,15.0,15.0,82,0.00,CLR,,0.00,WeatherDisplay:10.37,2013-07-14 19:39:00,
2013-07-14 15:44:00,80.5,74.5,30.01,SE,141,13.0,13.0,82,0.00,CLR,,0.00,WeatherDisplay:10.37,2013-07-14 19:44:00,
2013-07-14 15:49:00,80.4,74.4,30.01,East,98,11.5,11.5,82,0.00,CLR,,0.00,WeatherDisplay:10.37,2013-07-14 19:49:00,
2013-07-14 15:54:00,80.3,74.3,30.02,ENE,71,13.8,13.8,82,0.00,CLR,,0.00,WeatherDisplay:10.37,2013-07-14 19:54:00,
2013-07-14 15:59:00,80.3,74.3,30.02,East,97,9.2,9.2,82,0.00,CLR,,0.00,WeatherDisplay:10.37,2013-07-14 19:59:00,
2013-07-14 16:04:00,80.2,73.8,30.02,ENE,67,12.7,12.7,81,0.00,CLR,,0.00,WeatherDisplay:10.37,2013-07-14 20:04:00,
2013-07-14 16:09:00,80.1,73.7,30.01,ENE,69,11.5,11.5,81,0.00,CLR,,0.00,WeatherDisplay:10.37,2013-07-14 20:09:00,
2013-07-14 16:14:00,80.2,73.1,30.02,NE,56,13.8,13.8,79,0.00,CLR,,0.00,WeatherDisplay:10.37,2013-07-14 20:14:00,
2013-07-14 16:19:00,80.2,73.1,30.02,ENE,76,11.5,11.5,79,0.00,CLR,,0.00,WeatherDisplay:10.37,2013-07-14 20:19:00,
2013-07-14 16:24:00,80.3,73.2,30.02,ENE,62,9.2,9.2,79,0.00,CLR,,0.00,WeatherDisplay:10.37,2013-07-14 20:24:00,
2013-07-14 16:29:00,80.3,72.4,30.03,East,80,8.1,8.1,77,0.00,CLR,,0.00,WeatherDisplay:10.37,2013-07-14 20:29:00,
2013-07-14 16:34:00,80.5,73.0,30.03,North,360,2.3,2.3,78,0.00,CLR,,0.00,WeatherDisplay:10.37,2013-07-14 20:34:00,
2013-07-14 16:39:00,80.5,72.6,30.04,NNW,341,3.5,3.5,77,0.00,CLR,,0.00,WeatherDisplay:10.37,2013-07-14 20:39:00,
2013-07-14 16:44:00,80.4,73.3,30.04,NNW,338,5.0,5.0,79,0.00,CLR,,0.00,WeatherDisplay:10.37,2013-07-14 20:44:00,
2013-07-14 16:49:00,79.3,73.3,30.04,NW,320,13.8,13.8,82,0.00,CLR,,0.00,WeatherDisplay:10.37,2013-07-14 20:49:00,
2013-07-14 16:54:00,77.4,72.2,30.04,NW,304,17.3,17.3,84,0.00,CLR,,0.00,WeatherDisplay:10.37,2013-07-14 20:54:00,
2013-07-14 16:59:00,76.3,71.8,30.04,WNW,300,16.1,16.1,86,0.00,CLR,,0.00,WeatherDisplay:10.37,2013-07-14 20:59:00,
2013-07-14 17:04:00,75.7,71.9,30.04,NNW,327,13.8,13.8,88,0.00,CLR,,0.00,WeatherDisplay:10.37,2013-07-14 21:04:00,
2013-07-14 17:09:00,75.3,71.8,30.04,NW,313,10.4,10.4,89,0.00,CLR,,0.00,WeatherDisplay:10.37,2013-07-14 21:09:00,
2013-07-14 17:14:00,74.8,71.7,30.04,NNW,339,10.4,10.4,90,0.01,RA,,0.01,WeatherDisplay:10.37,2013-07-14 21:14:00,
2013-07-14 17:19:00,74.3,71.5,30.04,North,5,12.7,12.7,91,0.01,RA,,0.01,WeatherDisplay:10.37,2013-07-14 21:19:00,
2013-07-14 17:24:00,73.9,71.4,30.04,WNW,298,11.5,11.5,92,0.02,RA,,0.02,WeatherDisplay:10.37,2013-07-14 21:24:00,
2013-07-14 17:29:00,73.7,71.5,30.04,North,355,4.6,4.6,93,0.02,RA,,0.02,WeatherDisplay:10.37,2013-07-14 21:29:00,
2013-07-14 17:34:00,73.6,71.4,30.05,North,355,5.8,5.8,93,0.02,,,0.02,WeatherDisplay:10.37,2013-07-14 21:34:00,
2013-07-14 17:39:00,73.5,71.4,30.05,NNW,337,5.8,5.8,93,0.03,RA,,0.03,WeatherDisplay:10.37,2013-07-14 21:39:00,
2013-07-14 17:44:00,73.4,71.6,30.05,NNW,348,5.0,5.0,94,0.03,RA,,0.03,WeatherDisplay:10.37,2013-07-14 21:44:00,
2013-07-14 17:49:00,73.3,71.5,30.05,North,355,6.9,6.9,94,0.03,CLR,,0.03,WeatherDisplay:10.37,2013-07-14 21:49:00,
2013-07-14 17:54:00,73.1,71.3,30.05,NNW,343,10.4,10.4,94,0.03,CLR,,0.03,WeatherDisplay:10.37,2013-07-14 21:54:00,
2013-07-14 17:59:00,73.1,71.6,30.05,NNW,331,5.8,5.8,95,0.04,RA,,0.04,WeatherDisplay:10.37,2013-07-14 21:59:00,
2013-07-14 18:04:00,73.1,71.6,30.04,North,355,3.5,3.5,95,0.04,RA,,0.04,WeatherDisplay:10.37,2013-07-14 22:04:00,
2013-07-14 18:09:00,73.1,71.6,30.04,North,355,4.0,4.0,95,0.05,RA,,0.05,WeatherDisplay:10.37,2013-07-14 22:09:00,
2013-07-14 18:14:00,73.0,71.5,30.04,NNE,31,3.5,3.5,95,0.04,RA,,0.05,WeatherDisplay:10.37,2013-07-14 22:14:00,
2013-07-14 18:19:00,73.0,71.5,30.04,NNW,329,4.6,4.6,95,0.05,RA,,0.06,WeatherDisplay:10.37,2013-07-14 22:19:00,
2013-07-14 18:24:00,72.9,71.4,30.04,North,355,6.9,6.9,95,0.05,RA,,0.07,WeatherDisplay:10.37,2013-07-14 22:24:00,
2013-07-14 18:29:00,72.8,71.3,30.04,NNW,348,5.8,5.8,95,0.05,RA,,0.07,WeatherDisplay:10.37,2013-07-14 22:29:00,
2013-07-14 18:34:00,72.8,71.6,30.04,NNW,346,5.8,5.8,96,0.06,RA,,0.08,WeatherDisplay:10.37,2013-07-14 22:34:00,
2013-07-14 18:39:00,72.7,71.5,30.04,North,355,4.6,4.6,96,0.05,RA,,0.08,WeatherDisplay:10.37,2013-07-14 22:39:00,
2013-07-14 18:44:00,72.7,71.5,30.04,NNW,344,2.3,2.3,96,0.06,RA,,0.09,WeatherDisplay:10.37,2013-07-14 22:44:00,
2013-07-14 18:49:00,72.7,71.5,30.04,North,5,3.5,3.5,96,0.06,RA,,0.09,WeatherDisplay:10.37,2013-07-14 22:49:00,
2013-07-14 18:54:00,72.6,71.4,30.04,NNW,336,4.6,4.6,96,0.07,RA,,0.10,WeatherDisplay:10.37,2013-07-14 22:54:00,
2013-07-14 18:59:00,72.6,71.4,30.04,North,349,2.3,2.3,96,0.06,RA,,0.10,WeatherDisplay:10.37,2013-07-14 22:59:00,
2013-07-14 19:04:00,72.6,71.4,30.04,North,355,3.5,3.5,96,0.07,RA,,0.11,WeatherDisplay:10.37,2013-07-14 23:04:00,
2013-07-14 19:09:00,72.6,71.4,30.04,North,5,2.3,2.3,96,0.06,RA,,0.11,WeatherDisplay:10.37,2013-07-14 23:09:00,
2013-07-14 19:14:00,72.5,71.3,30.04,NNW,342,4.6,4.6,96,0.06,,,0.11,WeatherDisplay:10.37,2013-07-14 23:14:00,
2013-07-14 19:19:00,72.5,71.3,30.03,North,355,3.5,3.5,96,0.05,CLR,,0.11,WeatherDisplay:10.37,2013-07-14 23:19:00,
2013-07-14 19:24:00,72.5,71.3,30.03,NNW,344,3.5,3.5,96,0.04,CLR,,0.11,WeatherDisplay:10.37,2013-07-14 23:24:00,
2013-07-14 19:29:00,72.4,71.2,30.03,NW,325,3.5,3.5,96,0.04,CLR,,0.11,WeatherDisplay:10.37,2013-07-14 23:29:00,
2013-07-14 19:34:00,72.4,71.2,30.03,NNW,338,3.5,3.5,96,0.04,RA,,0.12,WeatherDisplay:10.37,2013-07-14 23:34:00,
2013-07-14 19:39:00,72.4,71.2,30.03,NNW,338,1.2,0.0,96,0.04,RA,,0.12,WeatherDisplay:10.37,2013-07-14 23:39:00,
2013-07-14 19:44:00,72.4,71.2,30.03,NNW,338,0.0,0.0,96,0.03,,,0.12,WeatherDisplay:10.37,2013-07-14 23:44:00,
2013-07-14 19:49:00,72.4,71.2,30.03,NNW,338,0.0,0.0,96,0.03,CLR,,0.12,WeatherDisplay:10.37,2013-07-14 23:49:00,
2013-07-14 19:54:00,72.4,71.2,30.03,NNW,344,0.0,0.0,96,0.02,CLR,,0.12,WeatherDisplay:10.37,2013-07-14 23:54:00,
2013-07-14 19:59:00,72.4,71.2,30.04,NNW,345,0.0,0.0,96,0.02,CLR,,0.12,WeatherDisplay:10.37,2013-07-14 23:59:00,
2013-07-14 20:04:00,72.5,71.3,30.04,NNW,345,0.0,0.0,96,0.01,CLR,,0.12,WeatherDisplay:10.37,2013-07-15 00:04:00,
2013-07-14 20:09:00,72.5,71.6,30.04,NNW,344,0.0,0.0,97,0.01,CLR,,0.12,WeatherDisplay:10.37,2013-07-15 00:09:00,
2013-07-14 20:14:00,72.5,71.3,30.04,NNW,344,0.0,0.0,96,0.01,CLR,,0.12,WeatherDisplay:10.37,2013-07-15 00:14:00,
2013-07-14 20:19:00,72.5,71.6,30.04,NNW,344,0.0,0.0,97,0.01,CLR,,0.12,WeatherDisplay:10.37,2013-07-15 00:19:00,
2013-07-14 20:24:00,72.5,71.6,30.04,NNW,335,2.0,2.0,97,0.01,CLR,,0.12,WeatherDisplay:10.37,2013-07-15 00:24:00,
2013-07-14 20:29:00,72.6,71.7,30.04,WNW,300,2.3,2.3,97,0.01,CLR,,0.12,WeatherDisplay:10.37,2013-07-15 00:29:00,
2013-07-14 20:34:00,72.7,71.8,30.04,WSW,253,3.5,3.5,97,0.00,CLR,,0.12,WeatherDisplay:10.37,2013-07-15 00:34:00,
2013-07-14 20:39:00,72.7,71.8,30.04,WSW,244,3.5,3.5,97,0.00,CLR,,0.12,WeatherDisplay:10.37,2013-07-15 00:39:00,
2013-07-14 20:44:00,72.6,71.7,30.04,WSW,250,3.5,3.5,97,0.00,CLR,,0.12,WeatherDisplay:10.37,2013-07-15 00:44:00,
2013-07-14 20:49:00,72.6,71.7,30.04,WSW,256,3.5,3.5,97,0.00,CLR,,0.12,WeatherDisplay:10.37,2013-07-15 00:49:00,
2013-07-14 20:54:00,72.7,71.8,30.04,West,261,4.6,4.6,97,0.00,CLR,,0.12,WeatherDisplay:10.37,2013-07-15 00:54:00,
2013-07-14 20:59:00,72.6,71.7,30.04,WSW,246,6.9,6.9,97,0.00,CLR,,0.12,WeatherDisplay:10.37,2013-07-15 00:59:00,
2013-07-14 21:04:00,72.5,71.6,30.04,SW,235,3.5,3.5,97,0.00,CLR,,0.12,WeatherDisplay:10.37,2013-07-15 01:04:00,
2013-07-14 21:09:00,72.4,71.5,30.04,WSW,253,4.6,4.6,97,0.00,CLR,,0.12,WeatherDisplay:10.37,2013-07-15 01:09:00,
2013-07-14 21:14:00,72.4,71.5,30.05,WSW,247,4.6,4.6,97,0.00,CLR,,0.12,WeatherDisplay:10.37,2013-07-15 01:14:00,
2013-07-14 21:19:00,72.4,71.5,30.05,WSW,240,2.3,2.3,97,0.00,CLR,,0.12,WeatherDisplay:10.37,2013-07-15 01:19:00,
2013-07-14 21:24:00,72.2,71.3,30.05,SW,224,1.2,1.2,97,0.00,CLR,,0.12,WeatherDisplay:10.37,2013-07-15 01:24:00,
2013-07-14 21:29:00,72.2,71.3,30.05,SW,228,2.3,2.3,97,0.00,CLR,,0.12,WeatherDisplay:10.37,2013-07-15 01:29:00,
2013-07-14 21:34:00,72.2,71.3,30.04,SW,227,1.0,1.0,97,0.00,CLR,,0.12,WeatherDisplay:10.37,2013-07-15 01:34:00,
2013-07-14 21:39:00,72.2,71.3,30.04,SW,227,3.5,3.5,97,0.00,CLR,,0.12,WeatherDisplay:10.37,2013-07-15 01:39:00,
2013-07-14 21:44:00,72.2,71.3,30.04,SW,227,2.3,0.0,97,0.00,CLR,,0.12,WeatherDisplay:10.37,2013-07-15 01:44:00,
2013-07-14 21:49:00,72.1,71.2,30.05,SW,227,1.2,0.0,97,0.00,CLR,,0.12,WeatherDisplay:10.37,2013-07-15 01:49:00,
2013-07-14 21:54:00,72.1,71.2,30.05,SW,227,0.0,0.0,97,0.00,CLR,,0.12,WeatherDisplay:10.37,2013-07-15 01:54:00,
2013-07-14 21:59:00,72.2,71.3,30.05,SW,227,1.0,1.0,97,0.00,CLR,,0.12,WeatherDisplay:10.37,2013-07-15 01:59:00,
2013-07-14 22:04:00,72.2,71.3,30.05,SW,231,0.0,0.0,97,0.00,CLR,,0.12,WeatherDisplay:10.37,2013-07-15 02:04:00,
2013-07-14 22:09:00,72.2,71.3,30.05,SW,233,0.0,0.0,97,0.00,CLR,,0.12,WeatherDisplay:10.37,2013-07-15 02:09:00,
2013-07-14 22:14:00,72.3,71.4,30.05,SW,233,0.0,0.0,97,0.00,CLR,,0.12,WeatherDisplay:10.37,2013-07-15 02:14:00,
2013-07-14 22:19:00,72.3,71.4,30.05,SW,233,0.0,0.0,97,0.00,CLR,,0.12,WeatherDisplay:10.37,2013-07-15 02:19:00,
2013-07-14 22:24:00,72.3,71.4,30.05,SW,233,0.0,0.0,97,0.00,CLR,,0.12,WeatherDisplay:10.37,2013-07-15 02:24:00,
2013-07-14 22:29:00,72.4,71.5,30.05,SW,234,0.0,0.0,97,0.00,CLR,,0.12,WeatherDisplay:10.37,2013-07-15 02:29:00,
2013-07-14 22:34:00,72.4,71.5,30.06,SW,234,0.0,0.0,97,0.00,CLR,,0.12,WeatherDisplay:10.37,2013-07-15 02:34:00,
2013-07-14 22:39:00,72.3,71.4,30.06,SW,234,0.0,0.0,97,0.00,CLR,,0.12,WeatherDisplay:10.37,2013-07-15 02:39:00,
2013-07-14 22:44:00,72.3,71.4,30.06,SW,234,0.0,0.0,97,0.00,CLR,,0.12,WeatherDisplay:10.37,2013-07-15 02:44:00,
2013-07-14 22:49:00,72.3,71.4,30.06,SW,234,0.0,0.0,97,0.00,CLR,,0.12,WeatherDisplay:10.37,2013-07-15 02:49:00,
2013-07-14 22:54:00,72.3,71.4,30.06,SW,234,0.0,0.0,97,0.00,CLR,,0.12,WeatherDisplay:10.37,2013-07-15 02:54:00,
2013-07-14 22:59:00,72.3,71.4,30.06,SW,234,0.0,0.0,97,0.00,CLR,,0.12,WeatherDisplay:10.37,2013-07-15 02:59:00,
2013-07-14 23:04:00,72.2,71.3,30.06,SW,234,0.0,0.0,97,0.00,CLR,,0.12,WeatherDisplay:10.37,2013-07-15 03:04:00,
2013-07-14 23:09:00,72.2,71.3,30.06,SW,234,0.0,0.0,97,0.00,CLR,,0.12,WeatherDisplay:10.37,2013-07-15 03:09:00,
2013-07-14 23:14:00,72.2,71.3,30.06,SW,234,0.0,0.0,97,0.00,CLR,,0.12,WeatherDisplay:10.37,2013-07-15 03:14:00,
2013-07-14 23:19:00,72.2,71.3,30.06,SW,234,0.0,0.0,97,0.00,CLR,,0.12,WeatherDisplay:10.37,2013-07-15 03:19:00,
2013-07-14 23:24:00,72.2,71.3,30.06,SW,234,0.0,0.0,97,0.00,CLR,,0.12,WeatherDisplay:10.37,2013-07-15 03:24:00,
2013-07-14 23:29:00,72.2,71.3,30.06,SW,234,0.0,0.0,97,0.00,CLR,,0.12,WeatherDisplay:10.37,2013-07-15 03:29:00,
2013-07-14 23:34:00,72.2,71.3,30.06,SW,234,0.0,0.0,97,0.00,CLR,,0.12,WeatherDisplay:10.37,2013-07-15 03:34:00,
2013-07-14 23:39:00,72.2,71.3,30.07,SSE,155,3.0,3.0,97,0.00,CLR,,0.12,WeatherDisplay:10.37,2013-07-15 03:39:00,
2013-07-14 23:44:00,72.2,71.3,30.07,SE,136,4.0,4.0,97,0.00,CLR,,0.12,WeatherDisplay:10.37,2013-07-15 03:44:00,
2013-07-14 23:49:00,72.3,71.4,30.07,ESE,111,9.2,9.2,97,0.00,CLR,,0.12,WeatherDisplay:10.37,2013-07-15 03:49:00,
2013-07-14 23:54:00,72.4,71.8,30.07,SE,134,3.5,3.5,98,0.00,CLR,,0.12,WeatherDisplay:10.37,2013-07-15 03:54:00,
2013-07-14 23:59:00,72.5,71.9,30.07,ESE,110,3.5,3.5,98,0.00,CLR,,0.12,WeatherDisplay:10.37,2013-07-15 03:59:00,